Akiachak, Alaska
Current Conditions -  °F | °C
As of 8:56 AM on Monday 20 Oct 2014 (Local Time) from PFKW Reporting Station
Light Snow Light Snow  
Wind Chill: 17°   Ceiling: 4600
Heat Index: 26°   Visibility: 6mi
Dew Point: 24°   Wind: 9mph
Humidity: 92%   Direction: 360°N
Pressure: 29.18"   Gusts: NA
Location:  60.91°N, 161.44°W
Report Text: PFKW 201656Z AUTO 36008KT 6SM -SN BR OVC046 M03/M04 A2918 RMK AO2 SLP881 P0000 T10331044 FZRANO
Loading
Personal Weather Stations






























Interactive Weather Map
Tropical Storm Tracking
New forecast layout! Learn more

10-Day Weather Forecast

Advertisements
Track Severe Weather on mobile